createdAt,value
2022-12-04T00:02:11.870Z,102231.34
2022-12-04T00:04:38.902Z,102223.53
2022-12-04T00:07:05.584Z,102210.50
2022-12-04T00:09:32.280Z,102229.63
2022-12-04T00:11:59.288Z,102223.53
2022-12-04T00:14:26.043Z,102187.09
2022-12-04T00:16:52.840Z,102231.34
2022-12-04T00:19:19.876Z,102215.72
2022-12-04T00:21:46.515Z,102227.88
2022-12-04T00:24:13.164Z,102225.28
2022-12-04T00:26:39.952Z,102209.66
2022-12-04T00:29:06.588Z,102220.06
2022-12-04T00:31:34.188Z,102211.38
2022-12-04T00:34:02.115Z,102227.88
2022-12-04T00:36:29.905Z,102224.41
2022-12-04T00:38:58.631Z,102204.44
2022-12-04T00:41:28.422Z,102211.38
2022-12-04T00:43:55.476Z,102212.25
2022-12-04T00:46:23.156Z,102208.75
2022-12-04T00:48:50.184Z,102199.22
2022-12-04T00:51:20.132Z,102219.19
2022-12-04T00:53:47.494Z,102183.59
2022-12-04T00:56:18.781Z,102219.22
2022-12-04T00:58:45.634Z,102190.56
2022-12-04T01:01:16.131Z,102208.78
2022-12-04T01:03:43.731Z,102213.09
2022-12-04T01:06:21.540Z,102207.91
2022-12-04T01:08:50.112Z,102208.75
2022-12-04T01:11:17.873Z,102214.88
2022-12-04T01:13:44.865Z,102213.97
2022-12-04T01:16:24.649Z,102216.59
2022-12-04T01:18:51.784Z,102205.28
2022-12-04T01:21:18.884Z,102190.53
2022-12-04T01:23:45.769Z,102196.63
2022-12-04T01:26:12.844Z,102174.06
2022-12-04T01:28:39.604Z,102200.94
2022-12-04T01:31:13.562Z,102206.19
2022-12-04T01:33:40.776Z,102205.31
2022-12-04T01:36:11.025Z,102217.44
2022-12-04T01:38:38.802Z,102220.91
2022-12-04T01:41:06.083Z,102203.56
2022-12-04T01:43:34.625Z,102213.97
2022-12-04T01:46:03.168Z,102215.72
2022-12-04T01:48:33.198Z,102180.09
2022-12-04T01:51:15.150Z,102215.69
2022-12-04T01:53:47.385Z,102162.75
2022-12-04T01:56:15.041Z,102213.09
2022-12-04T01:58:46.345Z,102162.72
2022-12-04T02:01:13.477Z,102194.03
2022-12-04T02:03:40.148Z,102201.84
2022-12-04T02:06:07.354Z,102209.63
2022-12-04T02:08:36.022Z,102220.94
2022-12-04T02:11:22.917Z,102211.38
2022-12-04T02:14:15.574Z,102202.72
2022-12-04T02:16:48.303Z,102208.78
2022-12-04T02:19:27.121Z,102207.03
2022-12-04T02:21:57.630Z,102204.44
2022-12-04T02:25:01.314Z,102209.63
2022-12-04T02:27:40.177Z,102200.09
2022-12-04T02:30:15.868Z,102192.25
2022-12-04T02:32:58.930Z,102167.97
2022-12-04T02:35:31.493Z,102207.06
2022-12-04T02:38:17.162Z,102196.63
2022-12-04T02:41:12.459Z,102213.97
2022-12-04T02:43:50.111Z,102210.50
2022-12-04T02:46:30.347Z,102224.41
2022-12-04T02:49:01.794Z,102226.16
2022-12-04T02:51:32.688Z,102220.06
2022-12-04T02:54:11.706Z,102223.53
2022-12-04T02:56:43.254Z,102227.84
2022-12-04T02:59:18.149Z,102218.28
2022-12-04T03:01:46.980Z,102201.78
2022-12-04T03:04:17.856Z,102206.97
2022-12-04T03:06:48.729Z,102211.34
2022-12-04T03:09:22.224Z,102176.63
2022-12-04T03:12:15.210Z,102214.84
2022-12-04T03:14:53.029Z,102220.00
2022-12-04T03:17:35.321Z,102216.53
2022-12-04T03:20:10.046Z,102202.66
2022-12-04T03:22:40.971Z,102216.56
2022-12-04T03:25:09.036Z,102220.91
2022-12-04T03:27:58.333Z,102218.34
2022-12-04T03:30:25.216Z,102203.56
2022-12-04T03:33:09.895Z,102179.22
2022-12-04T03:35:44.920Z,102208.75
2022-12-04T03:38:47.917Z,102216.59
2022-12-04T03:41:32.316Z,102212.22
2022-12-04T03:44:11.105Z,102221.78
2022-12-04T03:46:53.340Z,102221.75
2022-12-04T03:49:27.957Z,102225.19
2022-12-04T03:52:25.604Z,102229.56
2022-12-04T03:55:00.889Z,102214.78
2022-12-04T03:57:33.585Z,102225.22
2022-12-04T04:00:13.064Z,102231.28
2022-12-04T04:02:45.431Z,102225.19
2022-12-04T04:05:13.792Z,102216.56
2022-12-04T04:07:49.185Z,102216.53
2022-12-04T04:10:19.046Z,102213.09
2022-12-04T04:13:23.578Z,102220.03
2022-12-04T04:16:14.491Z,102220.06
2022-12-04T04:19:01.459Z,102195.75
2022-12-04T04:21:51.903Z,102211.41
2022-12-04T04:24:29.528Z,102211.38
2022-12-04T04:26:58.931Z,102194.88
2022-12-04T04:29:26.637Z,102224.41
2022-12-04T04:32:11.792Z,102224.38
2022-12-04T04:35:00.941Z,102225.25
2022-12-04T04:37:45.976Z,102227.00
2022-12-04T04:40:24.610Z,102207.00
2022-12-04T04:43:03.342Z,102225.25
2022-12-04T04:45:42.054Z,102213.97
2022-12-04T04:48:11.432Z,102225.25
2022-12-04T04:50:39.773Z,102179.19
2022-12-04T04:53:11.071Z,102225.25
2022-12-04T04:55:39.091Z,102233.94
2022-12-04T04:58:15.041Z,102218.25
2022-12-04T05:00:50.986Z,102223.47
2022-12-04T05:03:17.608Z,102218.22
2022-12-04T05:05:44.471Z,102231.31
2022-12-04T05:08:11.249Z,102236.50
2022-12-04T05:10:37.984Z,102220.00
2022-12-04T05:13:04.718Z,102226.97
2022-12-04T05:15:31.457Z,102203.50
2022-12-04T05:17:58.204Z,102228.72
2022-12-04T05:20:24.913Z,102206.16
2022-12-04T05:22:51.630Z,102212.22
2022-12-04T05:25:18.245Z,102187.00
2022-12-04T05:27:44.858Z,102226.97
2022-12-04T05:30:12.275Z,102221.78
2022-12-04T05:32:39.015Z,102235.66
2022-12-04T05:35:11.099Z,102235.66
2022-12-04T05:37:39.564Z,102227.00
2022-12-04T05:40:08.114Z,102235.69
2022-12-04T05:42:34.901Z,102228.72
2022-12-04T05:45:01.601Z,102220.06
2022-12-04T05:47:31.289Z,102233.06
2022-12-04T05:49:58.633Z,102210.50
2022-12-04T05:52:25.519Z,102255.56
2022-12-04T05:54:52.203Z,102262.47
2022-12-04T05:57:18.902Z,102234.75
2022-12-04T05:59:45.637Z,102233.91
2022-12-04T06:02:12.385Z,102222.56
2022-12-04T06:04:39.082Z,102215.63
2022-12-04T06:07:05.852Z,102234.78
2022-12-04T06:09:33.000Z,102235.66
2022-12-04T06:11:59.794Z,102233.88
2022-12-04T06:14:26.553Z,102224.31
2022-12-04T06:16:53.600Z,102237.38
2022-12-04T06:19:21.916Z,102233.00
2022-12-04T06:21:50.922Z,102188.69
2022-12-04T06:24:23.573Z,102246.09
2022-12-04T06:27:25.767Z,102233.03
2022-12-04T06:29:38.138Z,102252.16
2022-12-04T06:32:05.226Z,102230.47
2022-12-04T06:34:32.556Z,102200.03
2022-12-04T06:37:00.481Z,102244.34
2022-12-04T06:39:27.524Z,102259.09
2022-12-04T06:41:54.233Z,102258.22
2022-12-04T06:44:21.215Z,102246.00
2022-12-04T06:46:50.196Z,102223.44
2022-12-04T06:49:17.188Z,102257.34
2022-12-04T06:51:44.062Z,102238.25
2022-12-04T06:54:11.191Z,102258.25
2022-12-04T06:56:38.115Z,102228.69
2022-12-04T06:59:05.780Z,102253.94
2022-12-04T07:01:35.198Z,102241.72
2022-12-04T07:04:04.654Z,102273.03
2022-12-04T07:14:45.133Z,102249.47
2022-12-04T07:17:12.778Z,102229.47
2022-12-04T07:19:40.397Z,102246.03
2022-12-04T07:22:09.039Z,102228.66
2022-12-04T07:24:39.725Z,102267.72
2022-12-04T07:27:06.753Z,102252.94
2022-12-04T07:29:33.988Z,102233.91
2022-12-04T07:48:03.395Z,102207.03
2022-12-04T07:50:31.193Z,102222.66
2022-12-04T07:52:59.789Z,102194.00
2022-12-04T07:55:29.589Z,102200.94
2022-12-04T07:58:02.166Z,102273.84
2022-12-04T08:00:33.525Z,102273.88
2022-12-04T08:03:00.301Z,102248.63
2022-12-04T08:05:28.921Z,102237.31
2022-12-04T08:07:55.715Z,102241.69
2022-12-04T08:10:22.766Z,102230.38
2022-12-04T08:12:49.466Z,102247.78
2022-12-04T08:15:16.354Z,102294.72
2022-12-04T08:17:43.025Z,102233.91
2022-12-04T08:20:10.055Z,102248.69
2022-12-04T08:22:36.796Z,102239.13
2022-12-04T08:25:03.938Z,102239.09
2022-12-04T08:27:30.835Z,102239.09
2022-12-04T08:29:57.988Z,102262.53
2022-12-04T08:32:25.090Z,102230.31
2022-12-04T08:34:55.944Z,102238.94
2022-12-04T08:37:23.666Z,102289.34
2022-12-04T08:39:53.794Z,102248.53
2022-12-04T08:42:21.301Z,102244.19
2022-12-04T08:44:50.427Z,102224.22
2022-12-04T08:47:20.307Z,102302.47
2022-12-04T08:49:47.722Z,102258.19
2022-12-04T08:52:18.141Z,102279.97
2022-12-04T08:54:47.031Z,102266.06
2022-12-04T08:57:23.270Z,102292.09
2022-12-04T08:59:50.625Z,102251.22
2022-12-04T09:02:18.238Z,102241.69
2022-12-04T09:04:45.429Z,102254.78
2022-12-04T09:07:16.535Z,102268.66
2022-12-04T09:09:48.402Z,102295.63
2022-12-04T09:12:18.069Z,102288.66
2022-12-04T09:28:05.348Z,102318.22
2022-12-04T09:30:34.349Z,102280.88
2022-12-04T09:33:01.994Z,102249.59
2022-12-04T09:35:31.159Z,102316.50
2022-12-04T09:38:01.877Z,102284.34
2022-12-04T09:40:42.520Z,102265.22
2022-12-04T09:43:35.103Z,102335.59
2022-12-04T09:46:10.337Z,102312.13
2022-12-04T09:48:43.194Z,102323.44
2022-12-04T09:51:18.914Z,102292.16
2022-12-04T09:53:53.690Z,102301.72
2022-12-04T09:56:23.687Z,102326.06
2022-12-04T09:58:56.411Z,102345.16
2022-12-04T10:01:35.534Z,102342.56
2022-12-04T10:04:06.030Z,102265.22
2022-12-04T10:06:45.928Z,102333.00
2022-12-04T10:12:29.964Z,102331.28
2022-12-04T10:18:12.026Z,102342.56
2022-12-04T11:27:16.209Z,102326.91
2022-12-04T11:32:32.844Z,102319.97
2022-12-04T11:38:17.965Z,102274.78
2022-12-04T11:40:57.051Z,102279.13
2022-12-04T11:43:30.396Z,102336.47
2022-12-04T11:46:07.396Z,102315.59
2022-12-04T11:48:45.505Z,102306.91
2022-12-04T11:51:24.683Z,102345.16
2022-12-04T11:54:08.617Z,102323.44
2022-12-04T12:00:04.143Z,102339.09
2022-12-04T12:03:22.219Z,102335.59
2022-12-04T12:05:54.331Z,102301.69
2022-12-04T12:11:35.442Z,102328.63
2022-12-04T12:14:18.517Z,102320.81
2022-12-04T12:17:06.450Z,102334.72
2022-12-04T12:20:07.161Z,102336.47
2022-12-04T12:22:52.304Z,102330.38
2022-12-04T12:25:28.029Z,102337.34
2022-12-04T12:28:17.318Z,102346.91
2022-12-04T12:30:53.816Z,102343.44
2022-12-04T12:33:26.526Z,102316.47
2022-12-04T12:36:24.957Z,102336.50
2022-12-04T12:39:09.803Z,102280.00
2022-12-04T12:41:47.721Z,102266.09
2022-12-04T12:44:27.647Z,102285.19
2022-12-04T12:47:12.519Z,102275.66
2022-12-04T12:53:17.532Z,102320.84
2022-12-04T12:56:00.880Z,102331.28
2022-12-04T12:58:43.975Z,102327.78
2022-12-04T13:01:21.476Z,102309.56
2022-12-04T13:20:34.864Z,102309.53
2022-12-04T13:35:19.259Z,102281.75
2022-12-04T13:40:40.487Z,102323.44
2022-12-04T13:48:50.413Z,102329.50
2022-12-04T14:00:10.259Z,102314.75
2022-12-04T14:14:03.591Z,102329.53
2022-12-04T14:25:15.757Z,102332.13
2022-12-04T14:33:23.904Z,102321.66
2022-12-04T14:38:41.520Z,102322.56
2022-12-04T14:43:51.739Z,102296.47
2022-12-04T14:46:42.778Z,102297.31
2022-12-04T15:01:58.315Z,102349.47
2022-12-04T15:07:23.238Z,102310.38
2022-12-04T15:10:16.928Z,102351.19
2022-12-04T15:31:58.122Z,102374.56
2022-12-04T15:40:13.372Z,102390.19
2022-12-04T15:45:27.350Z,102383.22
2022-12-04T16:04:31.143Z,102380.72
2022-12-04T16:09:41.109Z,102365.88
2022-12-04T16:12:23.633Z,102380.66
2022-12-04T16:14:54.561Z,102385.84
2022-12-04T16:17:27.768Z,102357.16
2022-12-04T16:19:56.603Z,102280.53
2022-12-04T16:22:34.041Z,102361.34
2022-12-04T16:25:02.207Z,102377.97
2022-12-04T16:27:29.667Z,102398.00
2022-12-04T16:30:01.062Z,102355.31
2022-12-04T16:32:34.233Z,102316.19
2022-12-04T16:35:05.378Z,102416.31
2022-12-04T16:37:32.404Z,102434.38
2022-12-04T16:40:01.157Z,102438.72
2022-12-04T16:42:30.284Z,102352.59
2022-12-04T16:44:59.056Z,102415.34
2022-12-04T16:47:26.257Z,102386.66
2022-12-04T16:49:54.031Z,102408.41
2022-12-04T16:52:22.107Z,102383.06
2022-12-04T16:54:53.951Z,102302.09
2022-12-04T16:57:21.675Z,102369.25
2022-12-04T16:59:51.613Z,102361.25
2022-12-04T17:02:27.455Z,102436.22
2022-12-04T17:04:57.843Z,102343.16
2022-12-04T17:07:25.937Z,102420.59
2022-12-04T17:12:35.103Z,102417.03
2022-12-04T17:20:27.990Z,102401.34
2022-12-04T17:22:54.920Z,102403.16
2022-12-04T17:25:21.798Z,102367.44
2022-12-04T17:27:48.711Z,102380.31
2022-12-04T17:30:15.907Z,102329.97
2022-12-04T17:32:43.409Z,102443.09
2022-12-04T17:35:12.835Z,102370.09
2022-12-04T17:37:40.137Z,102406.59
2022-12-04T17:40:09.780Z,102388.38
2022-12-04T17:42:36.828Z,102464.03
2022-12-04T17:45:03.989Z,102369.13
2022-12-04T17:47:30.950Z,102422.13
2022-12-04T17:49:57.931Z,102432.44
2022-12-04T17:52:26.378Z,102442.94
2022-12-04T17:54:54.495Z,102411.72
2022-12-04T18:10:51.165Z,102441.41
2022-12-04T18:16:13.815Z,102398.84
2022-12-04T18:18:45.778Z,102369.19
2022-12-04T18:21:17.250Z,102388.22
2022-12-04T18:26:34.644Z,102466.72
2022-12-04T18:39:51.507Z,102393.41
2022-12-04T18:42:21.272Z,102376.81
2022-12-04T19:17:36.853Z,102450.13
2022-12-04T19:33:31.367Z,102496.94
2022-12-04T19:46:47.232Z,102489.75
2022-12-04T19:49:14.632Z,102448.16
2022-12-04T19:51:41.312Z,102535.28
2022-12-04T19:54:11.246Z,102521.31
2022-12-04T19:56:37.925Z,102478.59
2022-12-04T19:59:07.753Z,102529.97
2022-12-04T20:01:35.653Z,102500.25
2022-12-04T20:04:05.716Z,102511.66
2022-12-04T20:06:37.695Z,102536.84
2022-12-04T20:09:07.851Z,102532.41
2022-12-04T20:11:34.837Z,102513.34
2022-12-04T20:14:02.412Z,102521.22
2022-12-04T20:16:31.391Z,102516.06
2022-12-04T20:18:58.354Z,102516.13
2022-12-04T20:21:31.550Z,102521.22
2022-12-04T20:24:02.218Z,102536.91
2022-12-04T20:26:32.570Z,102533.25
2022-12-04T20:29:00.746Z,102521.06
2022-12-04T20:31:36.149Z,102542.06
2022-12-04T20:34:05.319Z,102539.47
2022-12-04T20:36:47.314Z,102536.81
2022-12-04T20:39:16.413Z,102541.16
2022-12-04T20:41:43.381Z,102535.16
2022-12-04T20:44:14.324Z,102495.94
2022-12-04T20:46:42.776Z,102533.41
2022-12-04T20:49:18.792Z,102531.81
2022-12-04T20:51:48.293Z,102544.66
2022-12-04T20:54:20.292Z,102542.22
2022-12-04T20:56:49.113Z,102523.06
2022-12-04T20:59:18.293Z,102543.94
2022-12-04T21:01:45.251Z,102514.31
2022-12-04T21:04:13.328Z,102515.28
2022-12-04T21:06:41.642Z,102514.38
2022-12-04T21:09:12.004Z,102541.47
2022-12-04T21:11:40.255Z,102550.03
2022-12-04T21:14:30.910Z,102506.44
2022-12-04T21:16:58.052Z,102545.63
2022-12-04T21:19:25.480Z,102555.25
2022-12-04T21:21:52.512Z,102507.38
2022-12-04T21:24:20.876Z,102555.34
2022-12-04T21:26:47.665Z,102557.13
2022-12-04T21:29:15.782Z,102555.25
2022-12-04T21:31:43.011Z,102538.69
2022-12-04T21:34:11.953Z,102522.16
2022-12-04T21:36:39.283Z,102550.06
2022-12-04T21:39:06.900Z,102546.59
2022-12-04T21:41:52.383Z,102532.69
2022-12-04T21:44:20.501Z,102551.88
2022-12-04T21:46:47.779Z,102552.56
2022-12-04T21:49:15.334Z,102551.81
2022-12-04T21:51:58.886Z,102544.75
2022-12-04T21:54:29.876Z,102548.38
2022-12-04T21:56:57.512Z,102523.13
2022-12-04T21:59:25.872Z,102545.66
2022-12-04T22:01:53.721Z,102558.72
2022-12-04T22:04:21.057Z,102545.72
2022-12-04T22:06:47.983Z,102544.84
2022-12-04T22:09:14.734Z,102551.69
2022-12-04T22:11:42.179Z,102555.13
2022-12-04T22:14:09.856Z,102556.16
2022-12-04T22:16:41.854Z,102529.00
2022-12-04T22:19:09.345Z,102565.63
2022-12-04T22:21:36.058Z,102545.50
2022-12-04T22:24:04.654Z,102558.69
2022-12-04T22:26:32.013Z,102562.19
2022-12-04T22:28:58.865Z,102564.78
2022-12-04T22:31:27.826Z,102567.31
2022-12-04T22:33:56.857Z,102567.31
2022-12-04T22:36:25.768Z,102575.25
2022-12-04T22:41:39.873Z,102601.97
2022-12-04T22:44:06.655Z,102585.38
2022-12-04T22:46:34.471Z,102564.34
2022-12-04T22:49:01.311Z,102601.09
2022-12-04T22:51:28.923Z,102559.28
2022-12-04T22:53:58.281Z,102561.16
2022-12-04T22:56:30.543Z,102602.03
2022-12-04T22:58:59.094Z,102598.69
2022-12-04T23:01:28.476Z,102579.44
2022-12-04T23:03:55.976Z,102565.53
2022-12-04T23:06:25.475Z,102588.94
2022-12-04T23:09:07.390Z,102595.09
2022-12-04T23:11:37.927Z,102595.81
2022-12-04T23:14:06.550Z,102595.03
2022-12-04T23:16:35.659Z,102576.84
2022-12-04T23:19:02.940Z,102583.78
2022-12-04T23:21:29.834Z,102569.91
2022-12-04T23:23:57.244Z,102588.91
2022-12-04T23:26:31.484Z,102594.19
2022-12-04T23:28:58.429Z,102545.38
2022-12-04T23:31:25.307Z,102584.66
2022-12-04T23:33:52.022Z,102571.59
2022-12-04T23:36:18.701Z,102560.19
2022-12-04T23:38:46.007Z,102608.19
2022-12-04T23:41:15.456Z,102589.88
2022-12-04T23:43:43.120Z,102603.00
2022-12-04T23:46:11.991Z,102583.81
2022-12-04T23:48:40.819Z,102604.63
2022-12-04T23:51:08.966Z,102586.34
2022-12-04T23:53:35.936Z,102608.09
2022-12-04T23:56:16.511Z,102600.19
2022-12-04T23:58:45.157Z,102589.78
